createdAt,value
2023-01-03T00:02:00.040Z,101818.13
2023-01-03T00:04:26.692Z,101819.31
2023-01-03T00:06:54.345Z,101826.06
2023-01-03T00:09:23.405Z,101832.66
2023-01-03T00:12:10.503Z,101827.97
2023-01-03T00:14:39.234Z,101825.19
2023-01-03T00:17:06.612Z,101850.19
2023-01-03T00:19:37.028Z,101841.47
2023-01-03T00:22:03.512Z,101846.25
2023-01-03T00:24:30.123Z,101850.81
2023-01-03T00:26:56.647Z,101843.13
2023-01-03T00:29:23.110Z,101857.38
2023-01-03T00:31:49.650Z,101856.28
2023-01-03T00:34:16.147Z,101855.69
2023-01-03T00:36:42.676Z,101867.06
2023-01-03T00:39:11.792Z,101871.34
2023-01-03T00:41:39.146Z,101863.88
2023-01-03T00:44:06.120Z,101859.28
2023-01-03T00:46:32.794Z,101869.59
2023-01-03T00:48:59.317Z,101869.09
2023-01-03T00:51:27.996Z,101875.50
2023-01-03T00:53:57.542Z,101883.16
2023-01-03T00:56:27.313Z,101882.13
2023-01-03T00:58:54.306Z,101882.06
2023-01-03T01:01:42.475Z,101887.41
2023-01-03T01:04:25.398Z,101891.59
2023-01-03T01:06:54.435Z,101891.66
2023-01-03T01:09:27.170Z,101897.34
2023-01-03T01:11:54.266Z,101909.19
2023-01-03T01:14:22.868Z,101912.75
2023-01-03T01:16:52.746Z,101910.31
2023-01-03T01:19:23.250Z,101916.50
2023-01-03T01:21:49.847Z,101918.25
2023-01-03T01:24:18.152Z,101924.94
2023-01-03T01:26:45.951Z,101928.44
2023-01-03T01:29:13.767Z,101927.06
2023-01-03T01:31:41.026Z,101935.69
2023-01-03T01:34:07.908Z,101939.69
2023-01-03T01:36:39.565Z,101944.81
2023-01-03T01:39:13.004Z,101946.13
2023-01-03T01:41:59.290Z,101950.66
2023-01-03T01:44:47.098Z,101955.97
2023-01-03T01:47:31.507Z,101957.53
2023-01-03T01:50:11.528Z,101961.25
2023-01-03T01:52:41.588Z,101959.75
2023-01-03T01:55:13.193Z,101964.72
2023-01-03T01:57:40.313Z,101968.44
2023-01-03T02:00:09.144Z,101970.34
2023-01-03T02:02:35.768Z,101982.47
2023-01-03T02:05:07.474Z,101979.41
2023-01-03T02:07:34.263Z,101981.25
2023-01-03T02:10:00.984Z,101982.47
2023-01-03T02:12:59.932Z,101977.19
2023-01-03T02:15:55.904Z,101982.31
2023-01-03T02:18:46.800Z,101983.84
2023-01-03T02:21:31.103Z,101980.31
2023-01-03T02:24:12.736Z,101976.09
2023-01-03T02:27:00.824Z,101991.88
2023-01-03T02:29:42.574Z,102000.84
2023-01-03T02:32:38.364Z,101986.09
2023-01-03T02:35:42.889Z,101981.88
2023-01-03T02:38:27.796Z,101983.22
2023-01-03T02:41:12.130Z,101994.09
2023-01-03T02:43:46.595Z,101996.06
2023-01-03T02:46:20.523Z,102000.16
2023-01-03T02:48:54.367Z,101987.59
2023-01-03T02:51:29.418Z,102004.53
2023-01-03T02:53:56.278Z,102007.81
2023-01-03T02:56:30.933Z,102008.91
2023-01-03T02:59:01.030Z,102003.44
2023-01-03T03:01:29.540Z,102009.13
2023-01-03T03:03:57.027Z,102022.59
2023-01-03T03:06:33.802Z,102024.13
2023-01-03T03:09:00.455Z,102035.47
2023-01-03T03:11:47.713Z,102035.41
2023-01-03T03:14:37.610Z,102041.06
2023-01-03T03:17:06.935Z,102043.41
2023-01-03T03:19:54.727Z,102038.00
2023-01-03T03:23:00.139Z,102040.34
2023-01-03T03:25:28.881Z,102040.63
2023-01-03T03:28:18.018Z,102041.44
2023-01-03T03:30:46.470Z,102043.41
2023-01-03T03:33:14.488Z,102046.75
2023-01-03T03:36:12.128Z,102043.91
2023-01-03T03:38:44.025Z,102045.28
2023-01-03T03:41:46.064Z,102047.09
2023-01-03T03:44:42.564Z,102053.22
2023-01-03T03:47:21.367Z,102045.25
2023-01-03T03:49:49.667Z,102050.47
2023-01-03T03:52:17.621Z,102048.47
2023-01-03T03:54:51.384Z,102056.22
2023-01-03T03:57:22.954Z,102055.91
2023-01-03T03:59:52.732Z,102063.22
2023-01-03T04:02:20.521Z,102060.34
2023-01-03T04:04:50.110Z,102060.03
2023-01-03T04:07:16.631Z,102066.84
2023-01-03T04:09:43.136Z,102070.28
2023-01-03T04:12:09.593Z,102074.69
2023-01-03T04:14:36.088Z,102074.53
2023-01-03T04:17:02.595Z,102083.72
2023-01-03T04:19:29.152Z,102077.41
2023-01-03T04:21:55.617Z,102079.94
2023-01-03T04:24:22.284Z,102079.91
2023-01-03T04:26:49.032Z,102084.66
2023-01-03T04:29:15.611Z,102080.94
2023-01-03T04:31:42.181Z,102083.06
2023-01-03T04:34:08.785Z,102076.88
2023-01-03T04:36:35.269Z,102088.19
2023-01-03T04:39:01.722Z,102085.53
2023-01-03T04:41:28.220Z,102081.72
2023-01-03T04:44:04.640Z,102080.53
2023-01-03T04:46:39.106Z,102082.13
2023-01-03T04:49:07.096Z,102081.00
2023-01-03T04:51:34.161Z,102078.25
2023-01-03T04:54:01.624Z,102082.38
2023-01-03T04:56:30.929Z,102080.19
2023-01-03T04:58:57.899Z,102090.88
2023-01-03T05:01:24.941Z,102092.16
2023-01-03T05:03:51.879Z,102087.28
2023-01-03T05:06:18.738Z,102092.94
2023-01-03T05:08:47.292Z,102080.44
2023-01-03T05:11:14.177Z,102090.97
2023-01-03T05:13:40.653Z,102101.03
2023-01-03T05:16:13.037Z,102095.38
2023-01-03T05:18:39.876Z,102095.44
2023-01-03T05:21:34.057Z,102096.75
2023-01-03T05:24:19.171Z,102103.66
2023-01-03T05:26:45.983Z,102105.66
2023-01-03T05:29:13.723Z,102102.34
2023-01-03T05:31:40.583Z,102103.47
2023-01-03T05:34:07.107Z,102106.22
2023-01-03T05:36:33.612Z,102110.63
2023-01-03T05:39:00.094Z,102104.94
2023-01-03T05:41:45.287Z,102116.03
2023-01-03T05:44:11.767Z,102121.00
2023-01-03T05:46:38.285Z,102115.63
2023-01-03T05:49:05.911Z,102119.47
2023-01-03T05:51:32.408Z,102121.94
2023-01-03T05:53:58.910Z,102123.91
2023-01-03T05:56:25.551Z,102132.50
2023-01-03T05:58:52.097Z,102137.31
2023-01-03T06:01:18.879Z,102141.56
2023-01-03T06:03:46.713Z,102142.56
2023-01-03T06:06:14.739Z,102151.41
2023-01-03T06:08:41.677Z,102151.53
2023-01-03T06:11:10.518Z,102154.97
2023-01-03T06:13:37.157Z,102151.06
2023-01-03T06:16:27.717Z,102153.78
2023-01-03T06:18:54.734Z,102160.09
2023-01-03T06:21:21.469Z,102168.31
2023-01-03T06:23:47.962Z,102167.34
2023-01-03T06:26:15.544Z,102169.16
2023-01-03T06:28:42.036Z,102164.00
2023-01-03T06:31:09.025Z,102169.88
2023-01-03T06:33:36.210Z,102172.34
2023-01-03T06:36:07.796Z,102172.34
2023-01-03T06:38:34.666Z,102180.53
2023-01-03T06:41:01.199Z,102175.75
2023-01-03T06:43:27.912Z,102184.97
2023-01-03T06:46:14.150Z,102179.34
2023-01-03T06:49:00.031Z,102185.41
2023-01-03T06:51:45.501Z,102182.47
2023-01-03T06:54:26.638Z,102190.69
2023-01-03T06:56:54.178Z,102192.84
2023-01-03T06:59:20.907Z,102199.16
2023-01-03T07:01:48.838Z,102203.44
2023-01-03T07:04:15.688Z,102193.53
2023-01-03T07:06:42.338Z,102203.34
2023-01-03T07:09:09.740Z,102214.13
2023-01-03T07:11:37.043Z,102206.38
2023-01-03T07:14:04.210Z,102212.63
2023-01-03T07:16:41.764Z,102212.09
2023-01-03T07:19:11.285Z,102228.03
2023-01-03T07:21:37.957Z,102229.22
2023-01-03T07:24:05.816Z,102225.03
2023-01-03T07:26:33.666Z,102230.09
2023-01-03T07:29:01.914Z,102227.69
2023-01-03T07:31:28.502Z,102230.91
2023-01-03T07:33:55.235Z,102232.91
2023-01-03T07:36:22.182Z,102241.94
2023-01-03T07:38:49.063Z,102243.16
2023-01-03T07:41:16.196Z,102238.88
2023-01-03T07:43:45.662Z,102248.50
2023-01-03T07:46:22.274Z,102244.44
2023-01-03T07:48:50.746Z,102252.34
2023-01-03T07:51:18.359Z,102246.84
2023-01-03T07:53:44.948Z,102260.75
2023-01-03T07:56:14.631Z,102260.22
2023-01-03T07:58:42.813Z,102268.41
2023-01-03T08:01:17.680Z,102271.34
2023-01-03T08:03:44.527Z,102264.28
2023-01-03T08:06:16.270Z,102271.44
2023-01-03T08:08:43.291Z,102274.38
2023-01-03T08:11:32.624Z,102267.66
2023-01-03T08:13:59.815Z,102267.75
2023-01-03T08:16:26.459Z,102273.75
2023-01-03T08:18:53.120Z,102268.56
2023-01-03T08:21:20.023Z,102274.47
2023-01-03T08:23:48.850Z,102280.19
2023-01-03T08:26:16.671Z,102276.56
2023-01-03T08:28:44.506Z,102291.00
2023-01-03T08:31:14.052Z,102284.78
2023-01-03T08:34:07.604Z,102285.19
2023-01-03T08:36:42.367Z,102286.34
2023-01-03T08:39:12.363Z,102294.56
2023-01-03T08:41:44.075Z,102289.34
2023-01-03T08:44:11.112Z,102286.97
2023-01-03T08:46:44.151Z,102292.88
2023-01-03T08:49:11.038Z,102296.50
2023-01-03T08:51:37.542Z,102292.00
2023-01-03T08:54:04.055Z,102305.44
2023-01-03T08:56:30.514Z,102319.38
2023-01-03T08:58:57.809Z,102320.81
2023-01-03T09:01:25.372Z,102322.81
2023-01-03T09:03:52.555Z,102328.38
2023-01-03T09:06:19.580Z,102339.38
2023-01-03T09:08:46.160Z,102342.03
2023-01-03T09:11:12.996Z,102337.22
2023-01-03T09:13:39.492Z,102337.69
2023-01-03T09:16:09.462Z,102341.19
2023-01-03T09:18:37.152Z,102352.19
2023-01-03T09:21:03.856Z,102355.56
2023-01-03T09:23:31.185Z,102361.66
2023-01-03T09:25:57.767Z,102362.94
2023-01-03T09:28:24.394Z,102368.44
2023-01-03T09:30:50.888Z,102367.09
2023-01-03T09:33:17.574Z,102369.09
2023-01-03T09:35:44.095Z,102365.28
2023-01-03T09:38:10.553Z,102372.91
2023-01-03T09:40:39.122Z,102375.72
2023-01-03T09:43:19.845Z,102376.56
2023-01-03T09:45:52.675Z,102379.91
2023-01-03T09:48:25.667Z,102390.00
2023-01-03T09:51:16.938Z,102388.88
2023-01-03T09:53:58.792Z,102395.00
2023-01-03T09:56:43.833Z,102393.31
2023-01-03T09:59:31.425Z,102396.53
2023-01-03T10:02:35.160Z,102376.94
2023-01-03T10:05:41.512Z,102392.19
2023-01-03T10:08:32.169Z,102389.47
2023-01-03T10:11:10.262Z,102391.81
2023-01-03T10:14:09.575Z,102400.53
2023-01-03T10:17:08.423Z,102395.59
2023-01-03T10:19:47.257Z,102387.91
2023-01-03T10:22:21.517Z,102387.88
2023-01-03T10:24:51.578Z,102392.34
2023-01-03T10:27:22.288Z,102391.47
2023-01-03T10:29:52.502Z,102388.50
2023-01-03T10:32:40.544Z,102390.81
2023-01-03T10:35:22.220Z,102390.81
2023-01-03T10:37:52.137Z,102385.94
2023-01-03T10:40:18.779Z,102381.19
2023-01-03T10:42:45.700Z,102378.28
2023-01-03T10:45:15.878Z,102369.75
2023-01-03T10:47:42.786Z,102373.59
2023-01-03T10:50:20.541Z,102372.50
2023-01-03T10:52:51.368Z,102370.75
2023-01-03T10:55:18.963Z,102373.00
2023-01-03T10:57:55.005Z,102371.94
2023-01-03T11:00:33.508Z,102366.59
2023-01-03T11:03:10.239Z,102377.19
2023-01-03T11:05:38.166Z,102367.44
2023-01-03T11:08:11.458Z,102374.28
2023-01-03T11:10:40.042Z,102369.25
2023-01-03T11:13:21.775Z,102381.41
2023-01-03T11:15:53.954Z,102364.94
2023-01-03T11:18:21.234Z,102369.81
2023-01-03T11:20:53.004Z,102368.66
2023-01-03T11:23:35.882Z,102363.78
2023-01-03T11:26:39.565Z,102359.91
2023-01-03T11:29:18.224Z,102354.06
2023-01-03T11:31:55.525Z,102350.81
2023-01-03T11:34:41.929Z,102357.22
2023-01-03T11:37:36.570Z,102352.22
2023-01-03T11:40:21.887Z,102352.47
2023-01-03T11:43:25.452Z,102351.31
2023-01-03T11:46:29.450Z,102354.56
2023-01-03T11:49:06.000Z,102352.22
2023-01-03T11:51:48.257Z,102344.75
2023-01-03T11:54:37.672Z,102343.84
2023-01-03T11:57:14.366Z,102343.44
2023-01-03T12:00:11.515Z,102335.69
2023-01-03T12:02:54.946Z,102334.78
2023-01-03T12:05:29.997Z,102336.56
2023-01-03T12:08:06.307Z,102348.16
2023-01-03T12:11:00.256Z,102340.34
2023-01-03T12:13:38.975Z,102344.88
2023-01-03T12:16:12.934Z,102348.28
2023-01-03T12:19:03.549Z,102345.97
2023-01-03T12:21:36.199Z,102334.53
2023-01-03T12:24:33.390Z,102334.59
2023-01-03T12:27:25.589Z,102338.22
2023-01-03T12:29:54.873Z,102334.44
2023-01-03T12:32:28.874Z,102322.19
2023-01-03T12:35:08.123Z,102322.97
2023-01-03T12:37:36.791Z,102326.16
2023-01-03T12:40:08.779Z,102317.53
2023-01-03T12:42:45.408Z,102316.31
2023-01-03T12:45:38.771Z,102325.88
2023-01-03T12:48:14.379Z,102318.25
2023-01-03T12:50:45.959Z,102322.13
2023-01-03T12:53:24.131Z,102321.16
2023-01-03T12:56:27.859Z,102315.44
2023-01-03T12:59:11.424Z,102313.91
2023-01-03T13:01:42.482Z,102319.22
2023-01-03T13:04:35.815Z,102301.97
2023-01-03T13:07:06.697Z,102299.81
2023-01-03T13:09:36.989Z,102303.03
2023-01-03T13:12:11.504Z,102296.97
2023-01-03T13:15:10.986Z,102303.16
2023-01-03T13:17:49.177Z,102301.34
2023-01-03T13:20:36.551Z,102294.75
2023-01-03T13:23:21.266Z,102296.25
2023-01-03T13:26:06.101Z,102286.69
2023-01-03T13:28:36.668Z,102300.19
2023-01-03T13:31:17.202Z,102286.59
2023-01-03T13:33:53.699Z,102292.81
2023-01-03T13:36:21.352Z,102292.34
2023-01-03T13:38:47.901Z,102282.22
2023-01-03T13:41:36.604Z,102290.31
2023-01-03T13:44:23.388Z,102288.03
2023-01-03T13:46:51.123Z,102291.16
2023-01-03T13:49:23.860Z,102291.75
2023-01-03T13:51:52.660Z,102295.47
2023-01-03T13:54:19.054Z,102295.44
2023-01-03T13:56:45.545Z,102294.09
2023-01-03T13:59:15.066Z,102306.50
2023-01-03T14:02:23.388Z,102293.38
2023-01-03T14:05:04.906Z,102299.28
2023-01-03T14:07:46.592Z,102296.06
2023-01-03T14:10:36.304Z,102295.69
2023-01-03T14:13:05.689Z,102293.47
2023-01-03T14:15:33.478Z,102288.78
2023-01-03T14:18:12.917Z,102287.28
2023-01-03T14:20:39.718Z,102287.59
2023-01-03T14:23:31.666Z,102284.44
2023-01-03T14:26:04.151Z,102277.78
2023-01-03T14:28:32.664Z,102282.63
2023-01-03T14:31:07.612Z,102288.78
2023-01-03T14:33:41.879Z,102290.03
2023-01-03T14:36:14.283Z,102296.78
2023-01-03T14:38:47.809Z,102304.56
2023-01-03T14:41:33.485Z,102300.16
2023-01-03T14:44:02.263Z,102308.25
2023-01-03T14:46:30.083Z,102299.59
2023-01-03T14:49:02.920Z,102299.25
2023-01-03T14:51:35.250Z,102299.63
2023-01-03T14:54:03.477Z,102291.97
2023-01-03T14:56:30.046Z,102301.53
2023-01-03T14:58:57.281Z,102302.03
2023-01-03T15:01:24.065Z,102298.88
2023-01-03T15:03:51.664Z,102288.75
2023-01-03T15:06:21.999Z,102283.59
2023-01-03T15:08:50.936Z,102278.88
2023-01-03T15:11:56.382Z,102278.53
2023-01-03T15:14:25.763Z,102266.88
2023-01-03T15:16:52.907Z,102273.69
2023-01-03T15:19:25.044Z,102282.22
2023-01-03T15:21:54.771Z,102279.38
2023-01-03T15:24:22.853Z,102296.25
2023-01-03T15:26:50.643Z,102289.84
2023-01-03T15:29:24.414Z,102283.59
2023-01-03T15:31:53.980Z,102271.16
2023-01-03T15:34:30.644Z,102272.13
2023-01-03T15:37:04.175Z,102270.50
2023-01-03T15:39:43.212Z,102280.03
2023-01-03T15:42:56.236Z,102292.75
2023-01-03T15:45:28.993Z,102293.25
2023-01-03T15:47:58.366Z,102295.94
2023-01-03T15:50:33.349Z,102284.75
2023-01-03T15:52:59.804Z,102289.03
2023-01-03T15:55:26.274Z,102306.25
2023-01-03T15:57:54.009Z,102307.81
2023-01-03T16:00:22.500Z,102308.22
2023-01-03T16:02:49.621Z,102291.81
2023-01-03T16:05:21.997Z,102297.72
2023-01-03T16:07:49.354Z,102295.50
2023-01-03T16:10:15.978Z,102293.81
2023-01-03T16:12:42.832Z,102287.31
2023-01-03T16:15:17.356Z,102281.19
2023-01-03T16:17:44.201Z,102286.38
2023-01-03T16:20:15.977Z,102277.63
2023-01-03T16:22:57.406Z,102285.13
2023-01-03T16:25:26.750Z,102289.44
2023-01-03T16:27:53.240Z,102278.59
2023-01-03T16:30:19.723Z,102279.56
2023-01-03T16:32:46.198Z,102286.38
2023-01-03T16:35:16.554Z,102284.53
2023-01-03T16:37:43.215Z,102289.63
2023-01-03T16:40:20.071Z,102285.50
2023-01-03T16:42:47.376Z,102276.66
2023-01-03T16:45:14.118Z,102277.41
2023-01-03T16:47:42.871Z,102278.41
2023-01-03T16:50:18.572Z,102276.88
2023-01-03T16:52:52.556Z,102273.31
2023-01-03T16:55:32.293Z,102267.56
2023-01-03T16:57:59.104Z,102267.75
2023-01-03T17:00:31.272Z,102268.97
2023-01-03T17:03:01.540Z,102269.69
2023-01-03T17:05:29.660Z,102259.50
2023-01-03T17:08:05.078Z,102259.50
2023-01-03T17:10:35.326Z,102250.75
2023-01-03T17:13:08.363Z,102254.63
2023-01-03T17:15:38.817Z,102245.88
2023-01-03T17:18:05.331Z,102236.28
2023-01-03T17:20:31.843Z,102231.38
2023-01-03T17:23:00.342Z,102237.28
2023-01-03T17:25:26.821Z,102232.13
2023-01-03T17:27:56.533Z,102229.09
2023-01-03T17:30:24.785Z,102225.97
2023-01-03T17:32:51.336Z,102226.69
2023-01-03T17:35:18.091Z,102231.06
2023-01-03T17:38:23.393Z,102222.03
2023-01-03T17:40:34.305Z,102218.53
2023-01-03T17:43:02.124Z,102222.00
2023-01-03T17:45:47.742Z,102218.09
2023-01-03T17:48:33.166Z,102222.56
2023-01-03T17:51:01.583Z,102221.69
2023-01-03T17:53:28.298Z,102222.53
2023-01-03T17:55:54.776Z,102216.28
2023-01-03T17:58:33.079Z,102211.88
2023-01-03T18:01:00.060Z,102202.22
2023-01-03T18:03:26.715Z,102197.72
2023-01-03T18:05:53.834Z,102203.50
2023-01-03T18:08:22.932Z,102212.09
2023-01-03T18:10:50.277Z,102206.09
2023-01-03T18:13:28.568Z,102205.81
2023-01-03T18:15:56.387Z,102199.19
2023-01-03T18:18:24.879Z,102200.56
2023-01-03T18:20:51.951Z,102204.19
2023-01-03T18:23:27.093Z,102194.81
2023-01-03T18:25:53.717Z,102199.19
2023-01-03T18:28:23.592Z,102198.38
2023-01-03T18:30:51.785Z,102189.13
2023-01-03T18:33:18.772Z,102195.47
2023-01-03T18:35:47.053Z,102182.56
2023-01-03T18:38:25.089Z,102188.81
2023-01-03T18:40:54.980Z,102183.19
2023-01-03T18:43:24.288Z,102175.78
2023-01-03T18:45:51.695Z,102165.88
2023-01-03T18:48:21.083Z,102174.88
2023-01-03T18:50:53.839Z,102165.84
2023-01-03T18:53:29.392Z,102170.38
2023-01-03T18:55:56.185Z,102162.66
2023-01-03T18:58:34.636Z,102152.50
2023-01-03T19:01:01.723Z,102148.06
2023-01-03T19:03:30.432Z,102139.94
2023-01-03T19:05:59.449Z,102149.97
2023-01-03T19:08:27.797Z,102149.53
2023-01-03T19:10:58.349Z,102157.75
2023-01-03T19:13:28.438Z,102150.13
2023-01-03T19:15:56.516Z,102136.19
2023-01-03T19:18:25.157Z,102132.19
2023-01-03T19:20:53.393Z,102130.97
2023-01-03T19:23:26.992Z,102128.91
2023-01-03T19:25:55.018Z,102123.84
2023-01-03T19:28:28.580Z,102115.59
2023-01-03T19:30:55.842Z,102109.97
2023-01-03T19:33:22.521Z,102104.44
2023-01-03T19:35:49.734Z,102095.88
2023-01-03T19:38:16.265Z,102100.06
2023-01-03T19:40:45.136Z,102097.41
2023-01-03T19:43:19.663Z,102091.28
2023-01-03T19:45:46.333Z,102084.81
2023-01-03T19:48:20.121Z,102088.34
2023-01-03T19:50:47.475Z,102079.38
2023-01-03T19:53:14.268Z,102073.66
2023-01-03T19:55:43.348Z,102082.31
2023-01-03T19:58:25.538Z,102082.88
2023-01-03T20:00:52.653Z,102079.72
2023-01-03T20:03:35.059Z,102076.78
2023-01-03T20:06:01.960Z,102077.22
2023-01-03T20:08:28.449Z,102070.78
2023-01-03T20:10:55.120Z,102067.53
2023-01-03T20:13:24.314Z,102071.84
2023-01-03T20:15:54.026Z,102062.25
2023-01-03T20:18:27.663Z,102056.63
2023-01-03T20:20:59.850Z,102051.09
2023-01-03T20:23:29.605Z,102047.69
2023-01-03T20:25:56.114Z,102031.94
2023-01-03T20:28:29.153Z,102042.66
2023-01-03T20:30:59.782Z,102029.25
2023-01-03T20:33:27.004Z,102025.63
2023-01-03T20:36:11.298Z,102020.22
2023-01-03T20:38:44.474Z,102016.94
2023-01-03T20:41:12.506Z,102004.66
2023-01-03T20:43:39.086Z,101999.94
2023-01-03T20:46:05.656Z,101994.28
2023-01-03T20:48:32.249Z,101986.66
2023-01-03T20:50:58.694Z,101985.06
2023-01-03T20:53:26.554Z,101978.56
2023-01-03T20:55:53.875Z,101985.16
2023-01-03T20:58:24.982Z,101975.47
2023-01-03T21:00:54.383Z,101975.38
2023-01-03T21:03:24.193Z,101978.59
2023-01-03T21:05:50.865Z,101967.53
2023-01-03T21:08:35.971Z,101971.38
2023-01-03T21:11:02.514Z,101961.00
2023-01-03T21:13:29.270Z,101950.22
2023-01-03T21:15:56.274Z,101957.41
2023-01-03T21:18:22.810Z,101943.03
2023-01-03T21:20:49.309Z,101939.75
2023-01-03T21:23:20.620Z,101943.50
2023-01-03T21:25:47.840Z,101950.41
2023-01-03T21:28:15.036Z,101938.44
2023-01-03T21:30:42.322Z,101932.31
2023-01-03T21:33:16.290Z,101931.16
2023-01-03T21:35:43.155Z,101926.72
2023-01-03T21:38:10.342Z,101925.75
2023-01-03T21:40:37.192Z,101923.16
2023-01-03T21:43:04.827Z,101930.91
2023-01-03T21:45:35.301Z,101922.72
2023-01-03T21:48:04.680Z,101920.75
2023-01-03T21:50:31.545Z,101916.31
2023-01-03T21:52:58.637Z,101911.38
2023-01-03T21:55:25.536Z,101909.19
2023-01-03T21:57:52.275Z,101904.72
2023-01-03T22:00:19.263Z,101898.91
2023-01-03T22:03:06.900Z,101884.91
2023-01-03T22:05:34.467Z,101894.56
2023-01-03T22:08:02.500Z,101891.34
2023-01-03T22:10:33.791Z,101883.88
2023-01-03T22:13:06.605Z,101888.69
2023-01-03T22:15:36.893Z,101871.44
2023-01-03T22:18:03.729Z,101864.44
2023-01-03T22:20:36.337Z,101868.00
2023-01-03T22:23:06.550Z,101843.88
2023-01-03T22:25:33.017Z,101848.56
2023-01-03T22:27:59.524Z,101842.34
2023-01-03T22:30:26.433Z,101833.63
2023-01-03T22:32:56.084Z,101821.13
2023-01-03T22:35:22.548Z,101820.50
2023-01-03T22:37:49.008Z,101810.75
2023-01-03T22:40:16.545Z,101810.03
2023-01-03T22:42:43.466Z,101806.56
2023-01-03T22:45:10.432Z,101808.63
2023-01-03T22:47:37.601Z,101808.75
2023-01-03T22:50:05.824Z,101814.97
2023-01-03T22:52:32.318Z,101811.47
2023-01-03T22:54:59.027Z,101798.03
2023-01-03T22:57:25.784Z,101797.00
2023-01-03T22:59:52.307Z,101787.97
2023-01-03T23:02:28.130Z,101780.66
2023-01-03T23:04:55.931Z,101790.38
2023-01-03T23:07:22.454Z,101779.06
2023-01-03T23:09:48.930Z,101788.00
2023-01-03T23:12:34.479Z,101774.06
2023-01-03T23:15:01.051Z,101761.63
2023-01-03T23:17:47.253Z,101760.97
2023-01-03T23:20:13.709Z,101757.72
2023-01-03T23:22:40.166Z,101743.84
2023-01-03T23:25:08.012Z,101746.41
2023-01-03T23:27:34.844Z,101728.06
2023-01-03T23:30:01.324Z,101723.88
2023-01-03T23:32:27.794Z,101717.06
2023-01-03T23:34:54.680Z,101711.47
2023-01-03T23:37:21.149Z,101712.78
2023-01-03T23:39:51.283Z,101709.88
2023-01-03T23:42:17.758Z,101715.56
2023-01-03T23:44:44.270Z,101708.22
2023-01-03T23:47:12.633Z,101698.34
2023-01-03T23:49:39.586Z,101692.31
2023-01-03T23:52:07.510Z,101684.00
2023-01-03T23:54:34.869Z,101669.91
2023-01-03T23:57:01.340Z,101661.97
2023-01-03T23:59:27.817Z,101663.31
